createdAt,value
2022-07-26T00:02:06.384Z,100484.03
2022-07-26T00:04:52.900Z,100491.88
2022-07-26T00:07:40.996Z,100504.41
2022-07-26T00:10:28.008Z,100495.63
2022-07-26T00:13:14.690Z,100482.63
2022-07-26T00:16:01.207Z,100485.41
2022-07-26T00:18:48.032Z,100502.47
2022-07-26T00:21:34.702Z,100513.44
2022-07-26T00:24:22.873Z,100499.47
2022-07-26T00:27:09.837Z,100480.94
2022-07-26T00:29:56.455Z,100479.53
2022-07-26T00:32:43.481Z,100446.03
2022-07-26T00:35:30.270Z,100491.66
2022-07-26T00:38:18.079Z,100500.56
2022-07-26T00:41:07.340Z,100499.81
2022-07-26T00:43:58.834Z,100502.91
2022-07-26T00:46:45.907Z,100500.13
2022-07-26T00:49:33.120Z,100481.56
2022-07-26T00:52:19.618Z,100508.59
2022-07-26T00:55:07.742Z,100496.16
2022-07-26T00:57:55.817Z,100492.72
2022-07-26T01:00:42.472Z,100491.22
2022-07-26T01:03:30.335Z,100484.13
2022-07-26T01:06:27.354Z,100498.31
2022-07-26T01:09:15.388Z,100492.41
2022-07-26T01:12:01.878Z,100490.47
2022-07-26T01:14:50.178Z,100497.09
2022-07-26T01:17:38.258Z,100499.78
2022-07-26T01:20:25.017Z,100488.22
2022-07-26T01:23:13.497Z,100511.38
2022-07-26T01:26:00.404Z,100501.41
2022-07-26T01:28:49.478Z,100494.44
2022-07-26T01:31:36.129Z,100499.78
2022-07-26T01:34:22.884Z,100506.19
2022-07-26T01:37:09.522Z,100524.00
2022-07-26T01:39:57.693Z,100526.50
2022-07-26T01:42:44.557Z,100514.81
2022-07-26T01:45:31.872Z,100512.34
2022-07-26T01:48:18.845Z,100512.41
2022-07-26T01:51:05.441Z,100506.06
2022-07-26T01:53:52.148Z,100522.50
2022-07-26T01:56:40.275Z,100523.25
2022-07-26T01:59:26.758Z,100524.41
2022-07-26T02:02:13.880Z,100528.06
2022-07-26T02:05:00.489Z,100527.41
2022-07-26T02:07:47.444Z,100523.22
2022-07-26T02:10:52.866Z,100516.03
2022-07-26T02:13:42.468Z,100511.75
2022-07-26T02:16:29.154Z,100528.25
2022-07-26T02:19:15.775Z,100534.38
2022-07-26T02:22:02.876Z,100535.31
2022-07-26T02:24:49.483Z,100539.06
2022-07-26T02:27:36.801Z,100536.81
2022-07-26T02:30:24.927Z,100535.50
2022-07-26T02:33:11.669Z,100535.28
2022-07-26T02:35:58.789Z,100530.22
2022-07-26T02:38:45.560Z,100534.16
2022-07-26T02:41:32.537Z,100543.47
2022-07-26T02:44:19.178Z,100542.81
2022-07-26T02:47:07.438Z,100534.31
2022-07-26T02:49:54.248Z,100537.34
2022-07-26T02:52:41.036Z,100533.00
2022-07-26T02:55:28.681Z,100537.59
2022-07-26T02:58:15.292Z,100537.78
2022-07-26T03:01:02.011Z,100522.22
2022-07-26T03:03:51.029Z,100526.13
2022-07-26T03:06:38.112Z,100530.72
2022-07-26T03:09:25.202Z,100521.34
2022-07-26T03:12:11.593Z,100537.41
2022-07-26T03:14:58.468Z,100531.31
2022-07-26T03:17:45.263Z,100529.59
2022-07-26T03:20:33.568Z,100525.94
2022-07-26T03:23:20.399Z,100518.88
2022-07-26T03:26:07.499Z,100533.31
2022-07-26T03:28:54.164Z,100533.22
2022-07-26T03:31:40.970Z,100525.56
2022-07-26T03:34:27.542Z,100532.13
2022-07-26T03:37:15.760Z,100530.34
2022-07-26T03:40:02.410Z,100528.91
2022-07-26T03:42:49.701Z,100527.09
2022-07-26T03:45:36.959Z,100531.38
2022-07-26T03:48:23.670Z,100537.41
2022-07-26T03:51:10.398Z,100539.78
2022-07-26T03:53:58.618Z,100533.34
2022-07-26T03:56:45.170Z,100540.91
2022-07-26T03:59:31.948Z,100538.78
2022-07-26T04:02:18.991Z,100533.78
2022-07-26T04:05:06.734Z,100547.53
2022-07-26T04:07:54.821Z,100545.34
2022-07-26T04:10:51.331Z,100541.72
2022-07-26T04:13:38.142Z,100540.66
2022-07-26T04:16:25.214Z,100541.31
2022-07-26T04:19:12.250Z,100545.41
2022-07-26T04:22:00.710Z,100546.16
2022-07-26T04:24:48.698Z,100545.19
2022-07-26T04:27:41.662Z,100540.03
2022-07-26T04:30:31.034Z,100549.19
2022-07-26T04:33:18.440Z,100542.75
2022-07-26T04:36:07.341Z,100548.22
2022-07-26T04:38:54.009Z,100540.47
2022-07-26T04:41:40.683Z,100546.19
2022-07-26T04:44:28.952Z,100547.88
2022-07-26T04:47:15.345Z,100550.75
2022-07-26T04:50:03.065Z,100547.97
2022-07-26T04:52:54.059Z,100551.09
2022-07-26T04:55:46.032Z,100545.44
2022-07-26T04:58:36.185Z,100552.41
2022-07-26T05:01:28.834Z,100542.53
2022-07-26T05:04:16.952Z,100539.66
2022-07-26T05:07:04.500Z,100555.16
2022-07-26T05:09:51.193Z,100561.06
2022-07-26T05:12:38.228Z,100558.50
2022-07-26T05:15:34.916Z,100559.59
2022-07-26T05:18:23.464Z,100558.47
2022-07-26T05:21:10.582Z,100560.75
2022-07-26T05:23:57.115Z,100574.47
2022-07-26T05:26:44.045Z,100583.06
2022-07-26T05:29:31.041Z,100585.31
2022-07-26T05:32:18.634Z,100580.06
2022-07-26T05:35:08.120Z,100586.50
2022-07-26T05:37:54.539Z,100585.13
2022-07-26T05:40:44.821Z,100579.31
2022-07-26T05:43:41.500Z,100589.09
2022-07-26T05:46:28.831Z,100590.47
2022-07-26T05:49:15.551Z,100599.06
2022-07-26T05:52:03.607Z,100601.56
2022-07-26T05:54:50.357Z,100602.28
2022-07-26T05:57:37.266Z,100601.84
2022-07-26T06:00:23.996Z,100606.94
2022-07-26T06:03:23.256Z,100609.69
2022-07-26T06:06:09.985Z,100613.34
2022-07-26T06:08:58.174Z,100609.06
2022-07-26T06:11:47.260Z,100616.81
2022-07-26T06:14:34.536Z,100611.09
2022-07-26T06:17:20.999Z,100607.13
2022-07-26T06:20:08.729Z,100610.66
2022-07-26T06:22:58.162Z,100611.13
2022-07-26T06:25:46.248Z,100615.47
2022-07-26T06:28:35.793Z,100611.66
2022-07-26T06:31:23.320Z,100612.41
2022-07-26T06:34:10.525Z,100608.34
2022-07-26T06:36:57.515Z,100612.47
2022-07-26T06:39:44.377Z,100614.31
2022-07-26T06:42:33.208Z,100612.81
2022-07-26T06:45:19.873Z,100613.44
2022-07-26T06:48:07.004Z,100620.69
2022-07-26T06:50:53.416Z,100624.75
2022-07-26T06:53:40.211Z,100624.09
2022-07-26T06:56:30.987Z,100629.59
2022-07-26T06:59:23.080Z,100634.44
2022-07-26T07:02:09.957Z,100633.97
2022-07-26T07:04:56.441Z,100637.41
2022-07-26T07:07:43.225Z,100636.34
2022-07-26T07:10:34.170Z,100626.78
2022-07-26T07:13:22.282Z,100632.47
2022-07-26T07:16:10.524Z,100634.28
2022-07-26T07:18:56.943Z,100641.06
2022-07-26T07:21:46.686Z,100650.63
2022-07-26T07:24:33.743Z,100645.16
2022-07-26T07:27:20.985Z,100640.97
2022-07-26T07:30:10.973Z,100646.13
2022-07-26T07:32:59.223Z,100636.88
2022-07-26T07:35:45.946Z,100643.84
2022-07-26T07:38:32.621Z,100641.72
2022-07-26T07:41:23.800Z,100649.56
2022-07-26T07:44:11.066Z,100643.16
2022-07-26T07:46:58.021Z,100645.16
2022-07-26T07:49:46.051Z,100640.09
2022-07-26T07:52:32.811Z,100641.34
2022-07-26T07:55:40.712Z,100638.44
2022-07-26T07:58:28.030Z,100629.59
2022-07-26T08:01:14.665Z,100637.50
2022-07-26T08:04:01.512Z,100649.88
2022-07-26T08:06:51.108Z,100637.16
2022-07-26T08:09:43.098Z,100634.81
2022-07-26T08:12:30.033Z,100636.78
2022-07-26T08:15:16.665Z,100635.81
2022-07-26T08:18:06.516Z,100642.50
2022-07-26T08:20:55.544Z,100647.88
2022-07-26T08:23:43.404Z,100642.41
2022-07-26T08:26:29.936Z,100643.88
2022-07-26T08:29:17.003Z,100646.72
2022-07-26T08:32:03.736Z,100648.97
2022-07-26T08:34:50.532Z,100649.78
2022-07-26T08:37:37.395Z,100650.09
2022-07-26T08:40:26.986Z,100647.34
2022-07-26T08:43:14.723Z,100654.47
2022-07-26T08:46:04.520Z,100662.41
2022-07-26T08:48:51.601Z,100659.75
2022-07-26T08:51:39.939Z,100658.72
2022-07-26T08:54:27.289Z,100659.72
2022-07-26T08:57:15.390Z,100671.97
2022-07-26T09:00:19.323Z,100663.16
2022-07-26T09:03:06.039Z,100668.28
2022-07-26T09:05:54.719Z,100669.28
2022-07-26T09:08:41.623Z,100674.66
2022-07-26T09:11:33.480Z,100677.59
2022-07-26T09:14:21.499Z,100668.66
2022-07-26T09:17:08.332Z,100671.81
2022-07-26T09:20:07.885Z,100674.53
2022-07-26T09:23:01.586Z,100670.19
2022-07-26T09:25:48.668Z,100668.69
2022-07-26T09:28:35.393Z,100664.63
2022-07-26T09:31:24.336Z,100666.56
2022-07-26T09:34:11.277Z,100665.94
2022-07-26T09:36:58.231Z,100673.84
2022-07-26T09:39:57.154Z,100671.00
2022-07-26T09:42:56.239Z,100677.13
2022-07-26T09:45:43.576Z,100672.34
2022-07-26T09:48:52.170Z,100674.41
2022-07-26T09:51:40.790Z,100670.00
2022-07-26T09:54:33.527Z,100665.31
2022-07-26T09:57:22.100Z,100667.41
2022-07-26T10:00:10.229Z,100664.09
2022-07-26T10:02:56.914Z,100665.00
2022-07-26T10:05:44.978Z,100667.16
2022-07-26T10:08:31.799Z,100630.56
2022-07-26T10:11:20.104Z,100661.16
2022-07-26T10:14:39.079Z,100654.97
2022-07-26T10:17:46.531Z,100666.47
2022-07-26T10:20:46.745Z,100668.63
2022-07-26T10:23:44.026Z,100678.28
2022-07-26T10:26:43.338Z,100677.81
2022-07-26T10:29:31.399Z,100672.81
2022-07-26T10:32:20.487Z,100675.44
2022-07-26T10:35:31.331Z,100673.69
2022-07-26T10:38:26.182Z,100669.03
2022-07-26T10:41:13.061Z,100677.13
2022-07-26T10:44:21.203Z,100671.22
2022-07-26T10:47:18.607Z,100656.34
2022-07-26T10:50:05.792Z,100657.22
2022-07-26T10:52:59.928Z,100650.69
2022-07-26T10:55:49.984Z,100655.69
2022-07-26T10:58:44.401Z,100662.09
2022-07-26T11:01:34.764Z,100671.78
2022-07-26T11:04:22.615Z,100668.16
2022-07-26T11:07:09.148Z,100669.25
2022-07-26T11:09:56.872Z,100661.81
2022-07-26T11:12:45.169Z,100670.69
2022-07-26T11:15:31.987Z,100669.25
2022-07-26T11:18:22.494Z,100666.38
2022-07-26T11:21:11.074Z,100657.75
2022-07-26T11:24:03.348Z,100663.41
2022-07-26T11:26:50.555Z,100652.91
2022-07-26T11:29:40.740Z,100662.13
2022-07-26T11:32:28.366Z,100656.88
2022-07-26T11:35:14.969Z,100653.38
2022-07-26T11:38:11.793Z,100665.06
2022-07-26T11:40:59.241Z,100643.69
2022-07-26T11:43:46.195Z,100663.09
2022-07-26T11:46:36.832Z,100662.16
2022-07-26T11:49:41.439Z,100667.28
2022-07-26T11:52:32.587Z,100670.19
2022-07-26T11:55:27.391Z,100694.72
2022-07-26T11:58:14.189Z,100710.00
2022-07-26T12:01:00.921Z,100725.88
2022-07-26T12:03:52.272Z,100730.22
2022-07-26T12:06:40.172Z,100742.38
2022-07-26T12:09:32.315Z,100737.03
2022-07-26T12:12:24.271Z,100744.91
2022-07-26T12:15:12.627Z,100744.63
2022-07-26T12:17:59.809Z,100746.56
2022-07-26T12:21:04.630Z,100753.22
2022-07-26T12:23:53.208Z,100756.75
2022-07-26T12:26:40.945Z,100743.50
2022-07-26T12:29:33.194Z,100747.88
2022-07-26T12:32:21.248Z,100740.00
2022-07-26T12:35:09.406Z,100747.50
2022-07-26T12:37:57.364Z,100748.19
2022-07-26T12:40:44.091Z,100756.50
2022-07-26T12:43:40.223Z,100750.44
2022-07-26T12:46:27.105Z,100758.03
2022-07-26T12:49:14.236Z,100765.25
2022-07-26T12:52:00.900Z,100762.38
2022-07-26T12:54:50.815Z,100755.69
2022-07-26T12:57:37.724Z,100778.03
2022-07-26T13:00:28.763Z,100772.63
2022-07-26T13:03:16.546Z,100774.09
2022-07-26T13:06:03.805Z,100776.63
2022-07-26T13:08:51.214Z,100782.25
2022-07-26T13:11:39.300Z,100797.53
2022-07-26T13:14:25.902Z,100806.97
2022-07-26T13:17:12.918Z,100809.50
2022-07-26T13:19:59.395Z,100807.34
2022-07-26T13:22:46.073Z,100809.94
2022-07-26T13:25:38.289Z,100816.72
2022-07-26T13:28:28.201Z,100818.81
2022-07-26T13:31:15.371Z,100816.59
2022-07-26T13:34:01.757Z,100820.25
2022-07-26T13:36:49.048Z,100814.06
2022-07-26T13:39:36.100Z,100812.28
2022-07-26T13:42:22.881Z,100815.63
2022-07-26T13:45:12.496Z,100825.94
2022-07-26T13:48:00.113Z,100802.03
2022-07-26T13:50:47.081Z,100824.72
2022-07-26T13:53:33.562Z,100820.34
2022-07-26T13:56:20.487Z,100816.34
2022-07-26T13:59:07.217Z,100819.38
2022-07-26T14:01:56.974Z,100824.06
2022-07-26T14:04:43.673Z,100828.13
2022-07-26T14:07:30.429Z,100828.75
2022-07-26T14:10:17.582Z,100832.50
2022-07-26T14:13:06.541Z,100824.34
2022-07-26T14:15:53.777Z,100826.44
2022-07-26T14:18:42.098Z,100829.38
2022-07-26T14:21:47.318Z,100828.53
2022-07-26T14:24:37.049Z,100829.78
2022-07-26T14:27:24.056Z,100828.97
2022-07-26T14:30:11.297Z,100830.84
2022-07-26T14:32:58.263Z,100822.53
2022-07-26T14:35:46.886Z,100832.81
2022-07-26T14:38:33.776Z,100818.59
2022-07-26T14:41:20.570Z,100828.44
2022-07-26T14:44:07.680Z,100814.44
2022-07-26T14:46:54.593Z,100830.38
2022-07-26T14:49:41.452Z,100834.94
2022-07-26T14:52:29.762Z,100832.97
2022-07-26T14:55:24.558Z,100833.06
2022-07-26T14:58:12.277Z,100834.22
2022-07-26T15:00:58.779Z,100835.56
2022-07-26T15:03:46.535Z,100832.03
2022-07-26T15:06:33.808Z,100837.28
2022-07-26T15:09:24.491Z,100834.19
2022-07-26T15:12:13.511Z,100833.78
2022-07-26T15:15:02.028Z,100837.97
2022-07-26T15:17:50.727Z,100836.78
2022-07-26T15:20:41.600Z,100832.94
2022-07-26T15:23:32.866Z,100835.22
2022-07-26T15:26:21.645Z,100840.56
2022-07-26T15:29:08.410Z,100834.91
2022-07-26T15:31:55.289Z,100835.38
2022-07-26T15:34:42.098Z,100834.38
2022-07-26T15:37:30.012Z,100836.66
2022-07-26T15:40:16.536Z,100835.41
2022-07-26T15:43:04.678Z,100835.78
2022-07-26T15:45:55.502Z,100840.66
2022-07-26T15:48:42.985Z,100834.72
2022-07-26T15:51:30.397Z,100840.59
2022-07-26T15:54:17.370Z,100833.78
2022-07-26T15:57:04.467Z,100834.16
2022-07-26T15:59:52.282Z,100833.81
2022-07-26T16:02:40.286Z,100834.78
2022-07-26T16:05:27.019Z,100838.22
2022-07-26T16:08:13.899Z,100829.63
2022-07-26T16:11:00.596Z,100831.09
2022-07-26T16:13:47.422Z,100830.59
2022-07-26T16:16:35.725Z,100834.28
2022-07-26T16:19:22.361Z,100834.91
2022-07-26T16:22:09.413Z,100841.91
2022-07-26T16:24:56.475Z,100842.50
2022-07-26T16:27:44.151Z,100842.38
2022-07-26T16:30:30.615Z,100843.59
2022-07-26T16:33:18.812Z,100835.38
2022-07-26T16:36:06.612Z,100840.50
2022-07-26T16:38:53.285Z,100848.59
2022-07-26T16:41:40.010Z,100848.47
2022-07-26T16:44:27.052Z,100848.44
2022-07-26T16:47:13.976Z,100833.78
2022-07-26T16:50:01.874Z,100853.91
2022-07-26T16:52:48.582Z,100854.69
2022-07-26T16:55:35.218Z,100850.84
2022-07-26T16:58:22.863Z,100847.53
2022-07-26T17:01:09.848Z,100842.63
2022-07-26T17:03:56.232Z,100846.25
2022-07-26T17:07:01.646Z,100846.72
2022-07-26T17:09:51.274Z,100844.84
2022-07-26T17:12:38.672Z,100843.38
2022-07-26T17:15:25.423Z,100839.69
2022-07-26T17:18:12.080Z,100843.56
2022-07-26T17:20:59.585Z,100848.25
2022-07-26T17:23:48.824Z,100852.38
2022-07-26T17:26:37.510Z,100844.56
2022-07-26T17:29:24.102Z,100848.44
2022-07-26T17:32:11.642Z,100852.38
2022-07-26T17:34:58.338Z,100860.34
2022-07-26T17:37:45.029Z,100859.84
2022-07-26T17:40:35.701Z,100873.50
2022-07-26T17:43:25.292Z,100878.47
2022-07-26T17:46:23.523Z,100874.09
2022-07-26T17:49:10.208Z,100877.16
2022-07-26T17:52:00.877Z,100872.88
2022-07-26T17:54:54.044Z,100871.66
2022-07-26T17:57:44.581Z,100876.19
2022-07-26T18:00:31.630Z,100879.91
2022-07-26T18:03:18.302Z,100868.72
2022-07-26T18:06:06.652Z,100867.78
2022-07-26T18:08:53.419Z,100878.31
2022-07-26T18:11:41.464Z,100868.63
2022-07-26T18:14:29.252Z,100875.38
2022-07-26T18:17:16.059Z,100875.38
2022-07-26T18:20:03.036Z,100881.59
2022-07-26T18:22:56.198Z,100887.28
2022-07-26T18:25:46.769Z,100889.13
2022-07-26T18:28:33.605Z,100883.19
2022-07-26T18:31:22.411Z,100887.16
2022-07-26T18:34:09.459Z,100889.78
2022-07-26T18:36:56.107Z,100882.75
2022-07-26T18:39:42.923Z,100895.41
2022-07-26T18:42:29.920Z,100890.56
2022-07-26T18:45:16.813Z,100889.81
2022-07-26T18:48:04.761Z,100896.25
2022-07-26T18:50:52.587Z,100901.63
2022-07-26T18:53:39.787Z,100901.03
2022-07-26T18:56:28.049Z,100907.72
2022-07-26T18:59:15.094Z,100907.13
2022-07-26T19:02:04.013Z,100910.97
2022-07-26T19:04:52.468Z,100908.84
2022-07-26T19:07:39.785Z,100906.34
2022-07-26T19:10:32.678Z,100915.81
2022-07-26T19:13:19.154Z,100925.44
2022-07-26T19:16:06.601Z,100926.34
2022-07-26T19:18:57.351Z,100933.06
2022-07-26T19:21:47.343Z,100931.97
2022-07-26T19:24:34.153Z,100941.31
2022-07-26T19:27:20.789Z,100942.78
2022-07-26T19:30:10.996Z,100944.53
2022-07-26T19:32:58.417Z,100950.66
2022-07-26T19:35:45.912Z,100949.25
2022-07-26T19:38:38.100Z,100951.50
2022-07-26T19:41:30.176Z,100951.91
2022-07-26T19:44:21.821Z,100952.50
2022-07-26T19:47:14.690Z,100961.84
2022-07-26T19:50:02.572Z,100964.75
2022-07-26T19:52:51.387Z,100969.06
2022-07-26T19:55:41.800Z,100964.03
2022-07-26T19:58:29.347Z,100969.94
2022-07-26T20:01:15.581Z,100975.53
2022-07-26T20:04:03.092Z,100969.25
2022-07-26T20:06:49.864Z,100975.38
2022-07-26T20:09:36.439Z,100977.66
2022-07-26T20:12:24.420Z,100976.63
2022-07-26T20:15:12.495Z,100978.50
2022-07-26T20:17:59.609Z,100980.63
2022-07-26T20:20:46.883Z,100984.53
2022-07-26T20:23:34.147Z,100994.44
2022-07-26T20:26:21.818Z,100998.91
2022-07-26T20:29:11.456Z,101001.88
2022-07-26T20:31:58.222Z,101014.69
2022-07-26T20:34:45.081Z,101017.56
2022-07-26T20:37:32.160Z,101016.25
2022-07-26T20:40:19.049Z,101019.72
2022-07-26T20:43:06.667Z,101015.31
2022-07-26T20:45:55.075Z,101011.28
2022-07-26T20:48:43.522Z,101019.09
2022-07-26T20:51:32.557Z,101022.06
2022-07-26T20:54:19.276Z,101026.69
2022-07-26T20:57:05.887Z,101026.59
2022-07-26T20:59:54.868Z,101025.59
2022-07-26T21:02:45.901Z,101022.06
2022-07-26T21:05:32.898Z,101025.81
2022-07-26T21:08:19.662Z,101026.69
2022-07-26T21:11:06.620Z,101033.91
2022-07-26T21:13:53.398Z,101033.38
2022-07-26T21:16:40.229Z,101032.16
2022-07-26T21:19:28.437Z,101038.34
2022-07-26T21:22:15.422Z,101040.00
2022-07-26T21:25:01.962Z,101045.06
2022-07-26T21:27:49.019Z,101048.09
2022-07-26T21:30:35.763Z,101045.97
2022-07-26T21:33:22.510Z,101047.69
2022-07-26T21:36:10.853Z,101043.44
2022-07-26T21:38:57.460Z,101050.16
2022-07-26T21:41:44.276Z,101054.28
2022-07-26T21:44:31.081Z,101057.19
2022-07-26T21:47:17.769Z,101057.19
2022-07-26T21:50:05.198Z,101067.63
2022-07-26T21:52:53.077Z,101071.59
2022-07-26T21:55:39.998Z,101073.34
2022-07-26T21:58:28.066Z,101076.28
2022-07-26T22:01:15.839Z,101082.00
2022-07-26T22:04:02.766Z,101088.06
2022-07-26T22:06:49.618Z,101101.69
2022-07-26T22:09:37.706Z,101101.81
2022-07-26T22:12:24.570Z,101102.19
2022-07-26T22:15:12.209Z,101109.38
2022-07-26T22:18:00.343Z,101105.78
2022-07-26T22:20:47.604Z,101112.91
2022-07-26T22:23:34.450Z,101112.03
2022-07-26T22:26:26.244Z,101105.72
2022-07-26T22:29:13.033Z,101104.41
2022-07-26T22:31:59.971Z,101121.31
2022-07-26T22:34:46.769Z,101123.88
2022-07-26T22:37:33.825Z,101123.63
2022-07-26T22:40:21.221Z,101117.72
2022-07-26T22:43:10.711Z,101113.06
2022-07-26T22:45:57.213Z,101114.94
2022-07-26T22:48:47.934Z,101119.19
2022-07-26T22:51:34.634Z,101109.34
2022-07-26T22:54:22.864Z,101110.38
2022-07-26T22:57:09.681Z,101111.31
2022-07-26T22:59:58.092Z,101117.84
2022-07-26T23:02:45.231Z,101117.13
2022-07-26T23:05:46.203Z,101122.47
2022-07-26T23:08:46.874Z,101121.56
2022-07-26T23:11:34.100Z,101123.31
2022-07-26T23:14:22.298Z,101125.63
2022-07-26T23:17:12.475Z,101129.16
2022-07-26T23:20:03.062Z,101118.69
2022-07-26T23:22:52.960Z,101122.97
2022-07-26T23:25:41.345Z,101125.16
2022-07-26T23:28:35.501Z,101113.94
2022-07-26T23:31:26.067Z,101122.44
2022-07-26T23:34:14.057Z,101124.16
2022-07-26T23:37:01.038Z,101120.63
2022-07-26T23:39:47.966Z,101124.63
2022-07-26T23:42:34.712Z,101128.91
2022-07-26T23:45:21.679Z,101127.16
2022-07-26T23:48:08.516Z,101127.31
2022-07-26T23:50:56.498Z,101124.09
2022-07-26T23:53:43.559Z,101113.25
2022-07-26T23:56:30.073Z,101122.78
2022-07-26T23:59:16.772Z,101115.56
